Time;durP1;ratioP1;P1;durP2;ratioP2;P2;SDS_P1;SDS_P2;PMS_P1;PMS_P2;Temp;Humidity;BMP_temperature;BMP_pressure;BME280_temperature;BME280_humidity;BME280_pressure;Samples;Min_cycle;Max_cycle;Signal;HPM_P1;HPM_P2
2023/02/20 00:00:38;;;;;;;13.97;4.80;;;;;;;5.34;56.63;100881.69;4995789;28;100848;-83
2023/02/20 00:03:05;;;;;;;10.85;4.80;;;;;;;5.50;56.68;100898.13;5009869;28;99837;-82
2023/02/20 00:05:31;;;;;;;14.17;4.70;;;;;;;5.51;56.75;100899.00;4986577;27;97202;-82
2023/02/20 00:07:57;;;;;;;8.60;3.70;;;;;;;5.45;56.51;100892.06;4986740;28;96775;-82
2023/02/20 00:10:23;;;;;;;8.70;3.40;;;;;;;5.43;56.77;100881.63;5008720;27;97990;-83
2023/02/20 00:12:49;;;;;;;9.03;3.43;;;;;;;5.47;56.46;100890.31;4996115;28;100984;-83
2023/02/20 00:15:18;;;;;;;9.50;3.90;;;;;;;5.32;56.96;100864.31;5003016;27;97262;-83
2023/02/20 00:17:46;;;;;;;9.37;4.67;;;;;;;5.47;56.79;100886.84;5003617;28;97268;-83
2023/02/20 00:20:23;;;;;;;9.80;4.60;;;;;;;5.45;56.44;100876.44;5011068;27;101200;-83
2023/02/20 00:22:48;;;;;;;8.93;3.80;;;;;;;5.45;56.62;100873.84;5004037;27;101581;-82
2023/02/20 00:25:15;;;;;;;10.70;4.23;;;;;;;5.47;56.85;100871.22;5012951;27;96821;-82
2023/02/20 00:27:42;;;;;;;9.20;3.53;;;;;;;5.51;56.81;100867.72;5034820;27;97421;-83
2023/02/20 00:30:12;;;;;;;7.77;3.70;;;;;;;5.44;56.53;100848.69;5033599;27;101517;-82
2023/02/20 00:32:37;;;;;;;8.63;2.90;;;;;;;5.35;56.73;100826.16;5051180;27;98327;-84
2023/02/20 00:35:03;;;;;;;8.50;3.70;;;;;;;5.53;56.86;100847.78;5049715;27;96808;-83
2023/02/20 00:37:30;;;;;;;8.27;3.00;;;;;;;5.51;57.08;100833.88;5054387;27;97072;-82
2023/02/20 00:39:55;;;;;;;9.80;3.73;;;;;;;5.51;56.62;100831.28;5044816;27;97977;-82
2023/02/20 00:42:21;;;;;;;10.90;3.97;;;;;;;5.59;56.68;100845.13;5027015;27;101378;-82
2023/02/20 00:44:46;;;;;;;8.93;4.03;;;;;;;5.57;57.07;100849.47;5033382;27;97093;-82
2023/02/20 00:47:12;;;;;;;10.40;4.07;;;;;;;5.57;56.61;100839.06;5026058;27;97044;-82
2023/02/20 00:49:39;;;;;;;7.07;3.00;;;;;;;5.57;56.45;100839.06;5034417;27;101415;-82
2023/02/20 00:52:13;;;;;;;8.80;3.07;;;;;;;5.56;56.53;100835.59;5059737;27;101374;-83
2023/02/20 00:54:38;;;;;;;9.87;3.40;;;;;;;5.59;57.20;100839.91;5041525;27;96801;-83
2023/02/20 00:57:04;;;;;;;6.63;3.10;;;;;;;5.56;56.72;100838.19;5067394;27;97135;-83
2023/02/20 00:59:30;;;;;;;11.50;3.77;;;;;;;5.59;57.08;100842.53;5049067;27;101343;-82
2023/02/20 01:01:55;;;;;;;8.27;3.43;;;;;;;5.57;56.88;100837.31;5031736;27;101576;-82
2023/02/20 01:04:21;;;;;;;7.43;3.47;;;;;;;5.55;56.92;100832.97;5047375;27;96723;-82
2023/02/20 01:06:46;;;;;;;10.63;4.50;;;;;;;5.43;57.13;100811.34;5032228;27;96845;-82
2023/02/20 01:09:12;;;;;;;10.77;3.60;;;;;;;5.58;57.28;100841.63;5055531;27;101538;-82
2023/02/20 01:11:44;;;;;;;11.93;4.43;;;;;;;5.51;57.15;100832.13;5020449;27;101358;-83
2023/02/20 01:14:10;;;;;;;13.00;4.23;;;;;;;5.55;56.66;100839.03;5030612;27;97175;-83
2023/02/20 01:16:36;;;;;;;15.63;4.80;;;;;;;5.60;56.76;100841.66;5025953;27;96974;-84
2023/02/20 01:19:02;;;;;;;7.17;3.20;;;;;;;5.47;56.92;100816.53;5052582;27;101699;-82
2023/02/20 01:21:28;;;;;;;9.47;3.40;;;;;;;5.60;56.96;100832.09;5032200;27;101160;-82
2023/02/20 01:23:53;;;;;;;7.60;3.30;;;;;;;5.62;57.15;100840.75;5049336;27;96973;-83
2023/02/20 01:26:19;;;;;;;9.33;3.00;;;;;;;5.61;57.01;100832.94;5053761;27;97286;-82
2023/02/20 01:28:46;;;;;;;9.00;3.60;;;;;;;5.58;57.17;100823.41;5017102;27;101788;-82
2023/02/20 01:31:12;;;;;;;9.53;3.43;;;;;;;5.53;57.10;100809.56;5008646;28;101351;-82
2023/02/20 01:33:41;;;;;;;10.67;3.60;;;;;;;5.57;57.30;100808.66;5009410;28;96734;-83
2023/02/20 01:36:07;;;;;;;8.27;3.37;;;;;;;5.65;57.05;100819.91;4993111;27;96810;-81
2023/02/20 01:38:32;;;;;;;9.87;3.40;;;;;;;5.44;56.75;100776.63;5015651;27;101304;-83
2023/02/20 01:40:58;;;;;;;7.57;3.03;;;;;;;5.63;57.17;100789.53;5003863;28;100284;-83
2023/02/20 01:43:24;;;;;;;8.00;3.27;;;;;;;5.68;57.38;100793.84;4996578;28;97854;-83
2023/02/20 01:45:49;;;;;;;13.23;2.93;;;;;;;5.64;57.16;100775.63;4996202;27;97176;-83
2023/02/20 01:48:21;;;;;;;8.07;3.30;;;;;;;5.64;57.39;100763.50;5018436;27;101683;-82
2023/02/20 01:50:50;;;;;;;7.00;2.93;;;;;;;5.69;57.41;100773.84;4996142;28;101064;-83
2023/02/20 01:53:19;;;;;;;7.47;3.00;;;;;;;5.69;57.06;100776.47;5007016;27;97482;-82
2023/02/20 01:55:47;;;;;;;6.90;2.60;;;;;;;5.71;57.29;100772.13;5010641;28;97385;-82
2023/02/20 01:58:18;;;;;;;6.97;2.73;;;;;;;5.74;57.29;100776.44;5001292;27;101818;-82
2023/02/20 02:00:43;;;;;;;6.97;2.57;;;;;;;5.57;57.20;100750.50;5018077;27;101610;-83
2023/02/20 02:03:15;;;;;;;9.13;2.70;;;;;;;5.68;57.11;100765.19;4998310;28;97187;-83
2023/02/20 02:05:45;;;;;;;6.40;2.75;;;;;;;5.61;57.16;100754.81;5014683;27;97322;-84
2023/02/20 02:08:13;;;;;;;5.47;2.03;;;;;;;5.66;57.04;100753.91;4987136;28;101033;-82
2023/02/20 02:10:47;;;;;;;6.17;2.20;;;;;;;5.70;56.91;100756.47;4998500;27;101227;-82
2023/02/20 02:13:13;;;;;;;6.68;2.67;;;;;;;5.73;57.36;100765.16;5017113;27;97172;-82
2023/02/20 02:15:38;;;;;;;5.53;2.60;;;;;;;5.75;57.37;100757.31;5015998;27;97334;-82
2023/02/20 02:18:16;;;;;;;7.77;2.00;;;;;;;5.75;57.15;100749.50;5012224;28;98364;-82
2023/02/20 02:21:09;;;;;;;4.30;1.97;;;;;;;5.68;56.88;100736.53;4994506;27;99504;-83
2023/02/20 02:24:20;;;;;;;5.47;2.00;;;;;;;5.74;56.87;100747.78;5016134;27;97167;-82
2023/02/20 02:26:54;;;;;;;9.37;1.80;;;;;;;5.70;56.83;100723.47;4978196;27;97497;-82
2023/02/20 02:29:29;;;;;;;6.67;2.17;;;;;;;5.77;56.97;100733.00;5066884;27;101378;-83
2023/02/20 02:32:17;;;;;;;7.37;2.73;;;;;;;5.72;56.72;100728.69;5054942;27;101118;-82
2023/02/20 02:34:51;;;;;;;9.67;2.37;;;;;;;5.74;56.63;100733.03;5050423;27;98279;-83
2023/02/20 02:37:29;;;;;;;4.13;2.07;;;;;;;5.74;56.67;100737.38;5054794;27;97077;-81
2023/02/20 02:40:20;;;;;;;7.03;2.07;;;;;;;5.70;56.62;100733.03;5048945;27;100742;-82
2023/02/20 02:43:01;;;;;;;4.97;2.00;;;;;;;5.72;56.60;100731.28;5034561;27;102046;-82
2023/02/20 02:45:36;;;;;;;6.00;1.93;;;;;;;5.69;56.64;100719.16;5059233;27;96916;-82
2023/02/20 02:48:31;;;;;;;5.87;1.90;;;;;;;5.54;57.02;100686.28;5054770;27;97186;-82
2023/02/20 02:51:03;;;;;;;6.83;1.90;;;;;;;5.64;56.82;100715.72;5033074;27;101386;-82
2023/02/20 02:53:28;;;;;;;7.45;1.85;;;;;;;5.52;56.66;100703.66;5055195;27;101668;-81
2023/02/20 02:55:54;;;;;;;5.23;1.83;;;;;;;5.56;57.09;100705.38;5055010;27;97264;-82
2023/02/20 02:58:20;;;;;;;5.73;2.13;;;;;;;5.64;56.80;100716.59;5055499;27;97230;-82
2023/02/20 03:00:52;;;;;;;6.00;1.70;;;;;;;5.55;57.20;100698.41;5034737;27;101551;-82
2023/02/20 03:03:27;;;;;;;6.43;1.83;;;;;;;5.61;56.98;100705.31;5038193;27;101910;-82
2023/02/20 03:06:06;;;;;;;5.20;1.90;;;;;;;5.62;56.84;100707.06;5037514;27;97296;-82
2023/02/20 03:08:56;;;;;;;6.27;1.93;;;;;;;5.61;56.82;100698.41;5038710;27;97114;-82
2023/02/20 03:11:24;;;;;;;4.50;1.60;;;;;;;5.56;57.25;100694.97;5042775;27;101456;-82
2023/02/20 03:16:58;;;;;;;4.17;1.73;;;;;;;5.61;56.62;100694.91;5068367;27;97448;-82
2023/02/20 03:19:56;;;;;;;4.20;1.60;;;;;;;5.59;56.28;100689.72;5051983;27;96941;-82
2023/02/20 03:22:26;;;;;;;6.07;2.60;;;;;;;5.61;56.30;100689.69;5050676;27;99398;-82
2023/02/20 03:24:55;;;;;;;5.63;2.50;;;;;;;5.57;56.64;100686.25;5046999;27;101379;-82
2023/02/20 03:27:47;;;;;;;5.50;1.60;;;;;;;5.61;56.26;100692.31;5050280;27;96835;-82
2023/02/20 03:30:35;;;;;;;4.17;2.27;;;;;;;5.61;56.21;100690.59;5055186;27;96800;-82
2023/02/20 03:44:12;;;;;;;4.73;1.90;;;;;;;5.40;55.98;100654.28;5056472;27;99482;-82
2023/02/20 03:46:38;;;;;;;6.90;2.03;;;;;;;5.56;56.33;100668.06;5037888;27;101461;-82
2023/02/20 03:49:12;;;;;;;7.37;2.00;;;;;;;5.71;56.32;100690.50;5037448;27;97521;-82
2023/02/20 03:51:40;;;;;;;6.40;2.03;;;;;;;5.73;55.95;100686.13;5037261;27;96980;-82
2023/02/20 03:54:18;;;;;;;10.20;2.40;;;;;;;5.55;55.71;100653.28;5051171;27;100795;-82
2023/02/20 03:56:51;;;;;;;10.67;2.33;;;;;;;5.72;56.09;100680.06;5040788;27;101022;-83
2023/02/20 03:59:25;;;;;;;5.50;2.20;;;;;;;5.70;56.17;100681.81;5047942;27;97807;-82
2023/02/20 04:01:55;;;;;;;5.37;2.03;;;;;;;5.70;55.93;100676.59;5026555;27;97150;-83
2023/02/20 04:04:25;;;;;;;7.53;3.40;;;;;;;5.68;56.47;100668.81;5041652;27;97881;-82
2023/02/20 04:06:52;;;;;;;5.67;2.20;;;;;;;5.73;55.98;100667.88;5046796;27;102093;-82
2023/02/20 04:09:28;;;;;;;3.60;1.90;;;;;;;5.63;55.61;100651.50;5022305;27;97367;-82
2023/02/20 04:12:03;;;;;;;5.60;2.13;;;;;;;5.70;55.39;100652.28;5028164;27;96715;-82
2023/02/20 04:14:30;;;;;;;7.17;2.37;;;;;;;5.67;55.51;100637.53;5040912;27;101106;-83
2023/02/20 04:17:01;;;;;;;7.93;2.37;;;;;;;5.71;54.98;100634.06;5032321;27;101682;-82
2023/02/20 04:19:28;;;;;;;7.90;2.57;;;;;;;5.76;55.08;100634.00;5037241;27;96809;-82
2023/02/20 04:21:58;;;;;;;7.63;3.10;;;;;;;5.66;55.35;100622.81;5052484;27;97230;-83
2023/02/20 04:24:39;;;;;;;7.07;3.20;;;;;;;5.75;54.97;100634.88;5037233;27;100632;-82
2023/02/20 04:27:06;;;;;;;;;;;;;;;5.71;54.90;100647.09;5022382;28;101061;-83
2023/02/20 04:29:35;;;;;;;9.93;2.60;;;;;;;5.73;55.43;100653.16;5008097;27;97001;-82
2023/02/20 04:32:01;;;;;;;7.17;2.53;;;;;;;5.62;55.29;100627.19;4998672;27;97418;-82
2023/02/20 04:34:31;;;;;;;10.57;2.93;;;;;;;5.60;55.02;100622.88;4999962;27;101153;-82
2023/02/20 04:37:06;;;;;;;4.97;2.60;;;;;;;5.62;55.45;100621.97;4999042;28;100993;-82
2023/02/20 04:39:32;;;;;;;4.77;2.13;;;;;;;5.64;54.83;100624.56;5010654;27;97060;-82
2023/02/20 04:41:58;;;;;;;4.63;2.00;;;;;;;5.48;55.23;100603.00;5003749;27;96904;-82
2023/02/20 04:44:30;;;;;;;4.73;2.20;;;;;;;5.75;55.13;100640.09;4997201;27;101576;-82
2023/02/20 04:46:57;;;;;;;5.28;1.83;;;;;;;5.79;55.51;100644.38;5013761;27;101825;-82
2023/02/20 04:49:23;;;;;;;6.20;2.37;;;;;;;5.78;55.36;100634.84;5000374;27;97567;-83
2023/02/20 04:51:52;;;;;;;6.03;2.03;;;;;;;5.76;55.08;100626.19;5001875;27;96959;-82
2023/02/20 04:54:18;;;;;;;6.47;2.20;;;;;;;5.72;55.07;100607.13;5010839;27;101669;-82
2023/02/20 04:56:44;;;;;;;5.13;2.10;;;;;;;5.73;54.68;100602.78;5008668;27;100535;-82
2023/02/20 04:59:10;;;;;;;8.53;3.23;;;;;;;5.80;55.28;100612.28;4991308;27;96738;-82
2023/02/20 05:01:36;;;;;;;7.03;2.60;;;;;;;5.75;55.65;100608.84;4996069;28;96815;-82
2023/02/20 05:04:01;;;;;;;10.60;2.47;;;;;;;5.76;55.39;100614.03;5010442;27;98120;-82
2023/02/20 05:06:27;;;;;;;7.83;3.10;;;;;;;5.72;55.75;100598.44;5042849;27;97637;-82
2023/02/20 05:08:52;;;;;;;8.07;3.40;;;;;;;5.80;55.96;100601.84;5008066;27;96754;-82
2023/02/20 05:11:18;;;;;;;8.33;3.87;;;;;;;5.78;55.86;100596.63;5001192;28;96790;-82
2023/02/20 05:13:43;;;;;;;6.23;3.43;;;;;;;5.78;56.00;100598.38;4993403;27;101570;-82
2023/02/20 05:16:09;;;;;;;10.50;3.83;;;;;;;5.80;55.69;100601.84;5014338;27;101639;-82
2023/02/20 05:18:34;;;;;;;6.83;3.23;;;;;;;5.82;56.04;100608.78;5015645;27;97417;-82
2023/02/20 05:23:47;;;;;;;6.20;3.80;;;;;;;5.83;56.09;100599.22;5010686;27;101421;-82
2023/02/20 05:26:17;;;;;;;8.63;3.73;;;;;;;5.84;56.18;100607.00;4999980;28;101564;-82
2023/02/20 05:28:44;;;;;;;7.63;3.13;;;;;;;5.83;56.62;100591.41;5067297;27;97045;-82
2023/02/20 05:31:10;;;;;;;8.50;3.53;;;;;;;5.85;56.38;100590.50;5062384;27;97190;-82
2023/02/20 05:33:35;;;;;;;7.13;3.43;;;;;;;5.71;56.68;100566.34;5041750;27;97972;-82
2023/02/20 05:36:01;;;;;;;5.88;3.13;;;;;;;5.73;56.80;100567.19;5046255;27;101388;-82
2023/02/20 05:38:27;;;;;;;7.20;3.07;;;;;;;5.87;56.89;100591.31;5052683;27;97210;-82
2023/02/20 05:40:52;;;;;;;12.73;4.40;;;;;;;5.87;56.89;100593.06;5045248;27;97214;-82
2023/02/20 05:43:18;;;;;;;6.37;3.40;;;;;;;5.86;56.92;100597.44;5041141;27;101633;-82
2023/02/20 05:45:44;;;;;;;4.67;2.70;;;;;;;5.63;57.04;100547.31;5053348;27;97901;-82
2023/02/20 05:48:13;;;;;;;5.93;2.77;;;;;;;5.80;56.84;100570.59;5064529;27;97380;-82
2023/02/20 05:50:38;;;;;;;7.33;3.07;;;;;;;5.91;57.46;100594.78;5048045;27;96831;-82
2023/02/20 05:53:05;;;;;;;6.77;3.07;;;;;;;5.93;57.21;100599.97;5035435;27;98129;-83
2023/02/20 05:55:30;;;;;;;5.35;2.70;;;;;;;5.95;57.51;100603.47;5034574;27;101380;-83
2023/02/20 05:57:56;;;;;;;6.83;3.30;;;;;;;5.93;57.66;100593.03;5047988;27;96863;-81
2023/02/20 06:00:22;;;;;;;7.00;3.37;;;;;;;5.93;57.77;100593.03;5035406;27;96942;-81
2023/02/20 06:02:48;;;;;;;7.32;3.75;;;;;;;5.88;57.89;100590.47;5055644;27;97630;-82
2023/02/20 06:05:14;;;;;;;8.50;3.70;;;;;;;5.91;57.71;100579.16;5024543;27;101638;-81
2023/02/20 06:07:42;;;;;;;6.13;3.43;;;;;;;5.77;57.72;100545.44;5047012;27;97909;-82
2023/02/20 06:10:08;;;;;;;9.05;3.55;;;;;;;5.90;57.58;100567.88;5041641;27;96843;-81
2023/02/20 06:12:33;;;;;;;8.27;3.72;;;;;;;5.83;58.10;100567.94;5061919;27;97927;-82
2023/02/20 06:14:59;;;;;;;6.15;3.42;;;;;;;5.89;57.93;100576.56;5050262;27;100808;-82
2023/02/20 06:17:25;;;;;;;7.17;3.43;;;;;;;5.91;58.22;100589.56;5029601;27;98346;-81
2023/02/20 06:19:50;;;;;;;7.93;3.33;;;;;;;5.91;58.46;100584.38;5046869;27;96842;-81
2023/02/20 06:22:16;;;;;;;6.63;3.43;;;;;;;5.94;58.45;100567.88;5050716;27;97372;-81
2023/02/20 06:24:46;;;;;;;5.65;2.88;;;;;;;6.00;58.47;100568.66;5033841;27;101789;-81
2023/02/20 06:27:12;;;;;;;8.83;3.20;;;;;;;6.01;58.34;100572.97;5059486;27;96822;-81
2023/02/20 06:29:38;;;;;;;10.57;4.10;;;;;;;6.00;58.48;100565.19;4993461;27;96842;-81
2023/02/20 06:32:03;;;;;;;7.55;3.85;;;;;;;6.06;58.59;100572.94;5031229;27;97431;-81
2023/02/20 06:34:32;;;;;;;10.13;4.10;;;;;;;6.01;58.94;100565.16;5052036;27;98096;-81
2023/02/20 06:36:59;;;;;;;11.15;4.82;;;;;;;5.89;59.04;100536.59;5017157;27;96739;-80
2023/02/20 06:39:24;;;;;;;8.50;3.50;;;;;;;6.09;59.19;100559.88;5029724;27;97351;-81
2023/02/20 06:41:50;;;;;;;6.25;3.90;;;;;;;6.10;58.77;100553.75;5010848;27;100469;-81
2023/02/20 06:44:15;;;;;;;8.20;3.25;;;;;;;6.16;59.04;100548.47;5027499;27;97869;-81
2023/02/20 06:46:41;;;;;;;5.83;3.63;;;;;;;6.14;59.01;100547.66;5029607;27;98167;-81
2023/02/20 06:49:07;;;;;;;5.73;3.50;;;;;;;6.18;59.35;100553.69;5010835;28;97214;-81
2023/02/20 06:51:33;;;;;;;6.90;3.70;;;;;;;6.05;59.01;100529.50;5030673;27;97796;-81
2023/02/20 06:53:59;;;;;;;11.17;3.67;;;;;;;6.24;59.42;100545.78;4999670;27;101977;-81
2023/02/20 06:56:28;;;;;;;12.27;3.92;;;;;;;6.25;59.42;100537.94;5013497;28;97291;-81
2023/02/20 06:58:54;;;;;;;8.13;3.65;;;;;;;6.31;59.36;100539.59;5010360;27;96994;-81
2023/02/20 07:01:22;;;;;;;9.87;3.40;;;;;;;6.37;58.97;100539.53;5016108;27;101414;-80
2023/02/20 07:03:49;;;;;;;9.07;3.83;;;;;;;6.39;59.78;100531.69;5016151;27;97518;-81
2023/02/20 07:06:16;;;;;;;8.35;3.58;;;;;;;6.37;59.56;100534.31;5034807;27;97421;-81
2023/02/20 07:08:42;;;;;;;6.30;3.05;;;;;;;6.39;59.73;100522.09;5013316;27;96896;-81
2023/02/20 07:11:07;;;;;;;6.50;3.40;;;;;;;6.48;59.34;100528.94;4998200;27;101341;-81
2023/02/20 07:13:33;;;;;;;5.80;2.97;;;;;;;6.48;59.53;100536.75;5011946;27;101589;-81
2023/02/20 07:15:58;;;;;;;8.20;3.85;;;;;;;6.45;59.72;100519.41;4999512;27;97032;-80
2023/02/20 07:18:26;;;;;;;8.95;3.42;;;;;;;6.32;59.63;100489.19;4995950;27;97173;-81
2023/02/20 07:20:52;;;;;;;4.88;3.53;;;;;;;6.50;60.10;100511.53;5011378;27;98013;-80
2023/02/20 07:23:18;;;;;;;5.85;3.40;;;;;;;6.52;60.21;100513.25;5006260;28;102068;-81
2023/02/20 07:25:43;;;;;;;5.32;3.08;;;;;;;6.55;60.36;100513.19;5009751;27;97350;-81
2023/02/20 07:28:09;;;;;;;5.90;3.10;;;;;;;6.53;60.33;100499.31;5020921;27;96896;-81
2023/02/20 07:30:35;;;;;;;5.53;2.85;;;;;;;6.41;60.58;100475.16;5010191;27;97368;-81
2023/02/20 07:33:00;;;;;;;5.05;2.70;;;;;;;6.57;60.56;100485.34;5029520;27;101356;-81
2023/02/20 07:35:26;;;;;;;6.20;3.37;;;;;;;6.60;60.60;100478.34;5032603;27;97025;-81
2023/02/20 07:37:56;;;;;;;5.17;2.93;;;;;;;6.61;60.66;100474.88;5014677;27;97188;-81
2023/02/20 07:40:21;;;;;;;6.75;3.00;;;;;;;6.61;60.88;100467.91;5016978;28;97656;-80
2023/02/20 07:42:47;;;;;;;4.50;2.83;;;;;;;6.60;60.85;100467.91;4995846;27;101700;-80
2023/02/20 07:45:20;;;;;;;6.43;3.20;;;;;;;6.59;60.93;100448.78;4999489;28;97255;-80
2023/02/20 07:47:46;;;;;;;6.10;3.00;;;;;;;6.65;61.31;100443.47;4987404;27;97384;-81
2023/02/20 07:50:14;;;;;;;7.27;3.00;;;;;;;6.74;61.28;100448.53;4996464;27;98475;-80
2023/02/20 07:52:39;;;;;;;5.80;3.43;;;;;;;6.71;61.09;100434.69;4996849;27;100651;-81
2023/02/20 07:55:05;;;;;;;5.60;3.63;;;;;;;6.80;61.64;100442.38;5009130;27;97043;-81
2023/02/20 07:57:33;;;;;;;6.70;3.70;;;;;;;6.61;61.27;100402.69;4997066;27;96993;-81
2023/02/20 07:59:58;;;;;;;5.25;3.25;;;;;;;6.86;61.13;100436.19;5012507;27;101683;-80
2023/02/20 08:02:24;;;;;;;11.43;3.75;;;;;;;6.77;61.52;100429.38;4999915;27;101025;-81
2023/02/20 08:04:49;;;;;;;9.50;3.60;;;;;;;6.86;61.43;100429.22;4994831;27;97285;-81
2023/02/20 08:07:15;;;;;;;5.38;3.53;;;;;;;6.58;61.82;100382.72;4998407;27;97889;-81
2023/02/20 08:09:40;;;;;;;6.70;3.50;;;;;;;6.93;61.47;100430.84;4993524;27;101329;-81
2023/02/20 08:12:06;;;;;;;6.50;3.65;;;;;;;6.94;61.87;100429.94;5011112;27;101257;-80
2023/02/20 08:14:31;;;;;;;6.25;3.75;;;;;;;6.82;62.03;100409.28;4984616;28;96786;-80
2023/02/20 08:16:57;;;;;;;6.53;3.80;;;;;;;7.03;61.86;100426.31;5017492;27;96913;-80
2023/02/20 08:19:22;;;;;;;5.93;3.78;;;;;;;7.03;62.28;100414.13;5012292;28;101770;-79
2023/02/20 08:21:48;;;;;;;7.05;3.80;;;;;;;7.08;61.98;100411.44;5015025;27;98126;-80
2023/02/20 08:24:14;;;;;;;7.25;4.10;;;;;;;7.04;62.45;100399.34;5015680;27;96768;-81
2023/02/20 08:26:47;;;;;;;7.20;4.28;;;;;;;7.14;62.27;100403.50;5013619;27;97327;-80
2023/02/20 08:29:13;;;;;;;9.07;4.25;;;;;;;7.17;62.53;100408.66;5010645;27;101520;-80
2023/02/20 08:31:39;;;;;;;10.02;4.68;;;;;;;7.20;62.28;100407.75;4997332;27;101249;-81
2023/02/20 08:34:04;;;;;;;6.45;4.07;;;;;;;7.20;62.58;100405.13;5011916;28;97437;-79
2023/02/20 08:36:30;;;;;;;8.32;4.35;;;;;;;7.17;62.85;100394.75;5015919;27;97146;-81
2023/02/20 08:38:56;;;;;;;6.28;4.15;;;;;;;7.26;62.59;100398.03;5008341;27;97456;-82
2023/02/20 08:41:21;;;;;;;9.55;5.78;;;;;;;7.30;62.75;100385.78;5028413;27;101288;-79
2023/02/20 08:43:47;;;;;;;8.45;4.30;;;;;;;7.33;63.06;100388.34;4991852;28;97396;-80
2023/02/20 08:46:13;;;;;;;6.32;4.05;;;;;;;7.16;62.97;100343.44;4996385;27;97255;-80
2023/02/20 08:48:39;;;;;;;6.97;4.70;;;;;;;7.39;63.12;100375.16;4996359;27;101083;-80
2023/02/20 08:51:05;;;;;;;8.90;4.90;;;;;;;7.45;62.99;100361.97;4993730;27;101612;-79
2023/02/20 08:53:32;;;;;;;6.70;4.40;;;;;;;7.43;62.95;100337.63;5026180;27;97289;-79
2023/02/20 08:55:57;;;;;;;6.68;4.75;;;;;;;7.68;63.27;100355.41;5005639;27;97288;-79
2023/02/20 08:58:24;;;;;;;8.50;5.38;;;;;;;7.83;63.42;100347.22;5018442;27;99351;-79
2023/02/20 09:00:50;;;;;;;9.98;5.45;;;;;;;7.84;62.84;100327.19;5042620;27;98997;-79
2023/02/20 09:03:15;;;;;;;7.70;5.32;;;;;;;8.16;62.78;100345.59;5010438;27;97390;-79
2023/02/20 09:05:41;;;;;;;6.00;4.72;;;;;;;8.21;62.27;100342.03;5010442;27;97797;-79
2023/02/20 09:08:07;;;;;;;6.82;4.93;;;;;;;8.21;61.86;100334.19;5010619;27;101381;-79
2023/02/20 09:10:33;;;;;;;6.95;5.13;;;;;;;8.13;62.76;100323.88;4996095;27;101345;-79
2023/02/20 09:12:59;;;;;;;7.57;5.45;;;;;;;8.20;62.49;100333.28;4997106;27;97490;-79
2023/02/20 09:15:25;;;;;;;9.77;4.95;;;;;;;8.21;62.57;100334.19;5020290;27;97283;-79
2023/02/20 09:17:51;;;;;;;9.07;5.03;;;;;;;8.11;62.57;100308.22;4997193;28;101088;-79
2023/02/20 09:20:19;;;;;;;10.05;4.93;;;;;;;8.27;62.87;100336.63;4995000;27;101100;-79
2023/02/20 09:22:46;;;;;;;12.38;5.72;;;;;;;8.23;62.83;100320.16;5011163;27;98474;-80
2023/02/20 09:25:12;;;;;;;11.05;5.43;;;;;;;8.26;62.70;100313.97;5048834;27;97521;-79
2023/02/20 09:27:38;;;;;;;11.68;5.97;;;;;;;8.31;62.45;100317.34;4997004;27;101068;-79
2023/02/20 09:30:04;;;;;;;7.63;5.32;;;;;;;8.33;62.67;100308.56;5000109;27;98560;-79
2023/02/20 09:32:30;;;;;;;6.80;4.53;;;;;;;8.29;62.61;100299.09;4996130;28;97345;-80
2023/02/20 09:34:56;;;;;;;7.35;5.03;;;;;;;8.34;61.90;100293.72;5003715;27;97059;-80
2023/02/20 09:37:23;;;;;;;8.20;4.53;;;;;;;8.37;62.21;100276.19;5011251;27;101400;-79
2023/02/20 09:39:48;;;;;;;8.35;5.07;;;;;;;8.44;61.97;100265.63;5008684;27;101161;-80
2023/02/20 09:42:33;;;;;;;6.38;4.40;;;;;;;8.58;61.03;100273.94;4993804;27;97418;-79
2023/02/20 09:45:09;;;;;;;6.43;4.05;;;;;;;8.62;60.52;100273.00;5017049;28;97697;-79
2023/02/20 09:48:12;;;;;;;5.88;4.18;;;;;;;8.64;60.73;100273.81;5010326;27;97299;-80
2023/02/20 09:50:52;;;;;;;7.93;4.22;;;;;;;8.71;60.09;100267.50;5006390;27;101499;-79
2023/02/20 09:53:30;;;;;;;6.55;4.03;;;;;;;8.69;59.63;100258.81;4999895;27;96731;-79
2023/02/20 09:55:56;;;;;;;6.20;3.95;;;;;;;8.48;59.83;100207.94;5023416;27;97959;-78
2023/02/20 09:58:50;;;;;;;5.90;3.95;;;;;;;8.75;59.39;100266.50;5007928;28;103766;-75
2023/02/20 10:01:19;;;;;;;13.25;4.70;;;;;;;8.60;59.52;100239.00;5035736;27;100278;-79
2023/02/20 10:03:55;;;;;;;6.22;3.65;;;;;;;8.71;59.25;100259.66;5011376;27;97388;-80
2023/02/20 10:06:24;;;;;;;7.72;4.25;;;;;;;8.71;59.67;100261.41;5006574;27;97795;-81
2023/02/20 10:08:50;;;;;;;8.82;4.32;;;;;;;8.65;59.15;100244.13;5012074;27;100762;-81
2023/02/20 10:11:25;;;;;;;7.57;4.50;;;;;;;8.73;59.38;100220.38;5007408;27;98059;-81
2023/02/20 10:14:04;;;;;;;5.72;3.80;;;;;;;8.74;59.12;100204.59;5033616;27;98299;-81
2023/02/20 10:16:38;;;;;;;9.30;3.80;;;;;;;8.75;58.76;100201.06;5030342;27;97500;-82
2023/02/20 10:19:29;;;;;;;6.68;4.35;;;;;;;8.81;59.29;100189.56;5013704;27;99232;-82
2023/02/20 10:22:46;;;;;;;6.50;4.00;;;;;;;8.84;59.35;100197.34;5030377;27;101520;-82
2023/02/20 10:25:24;;;;;;;7.25;4.28;;;;;;;8.93;58.53;100177.88;4989165;27;96837;-82
2023/02/20 10:27:58;;;;;;;7.28;4.40;;;;;;;8.89;59.10;100143.09;5031957;27;97383;-81
2023/02/20 10:30:37;;;;;;;5.93;3.40;;;;;;;9.02;58.29;100136.59;5007785;27;101838;-82
2023/02/20 10:33:15;;;;;;;7.88;4.63;;;;;;;9.28;58.33;100153.28;5007992;27;101512;-81
2023/02/20 10:35:56;;;;;;;6.35;4.25;;;;;;;9.22;58.48;100125.50;5016294;27;97128;-79
2023/02/20 10:38:25;;;;;;;9.25;4.38;;;;;;;9.38;57.97;100115.38;5015876;27;97493;-76
2023/02/20 10:41:01;;;;;;;9.13;4.57;;;;;;;9.29;58.05;100081.63;5033330;27;97494;-80
2023/02/20 10:43:34;;;;;;;10.75;4.97;;;;;;;9.50;57.96;100101.88;4997667;27;102071;-81
2023/02/20 10:46:06;;;;;;;8.15;5.13;;;;;;;9.69;57.93;100090.78;5029364;27;97531;-80
2023/02/20 10:48:33;;;;;;;6.95;4.43;;;;;;;9.80;57.82;100082.53;5014424;27;97169;-79
2023/02/20 10:51:16;;;;;;;7.57;4.05;;;;;;;9.77;57.42;100069.53;4992692;27;101421;-81
2023/02/20 10:53:54;;;;;;;7.65;4.35;;;;;;;9.88;56.90;100052.53;5030944;27;97970;-81
2023/02/20 10:56:40;;;;;;;6.78;4.05;;;;;;;10.11;56.81;100063.97;4999680;27;97249;-81
2023/02/20 10:59:20;;;;;;;9.43;4.63;;;;;;;10.14;56.63;100058.63;5004159;27;97051;-83
2023/02/20 11:01:48;;;;;;;11.05;4.43;;;;;;;10.13;56.90;100067.41;5008428;27;100915;-81
2023/02/20 11:04:17;;;;;;;8.68;4.10;;;;;;;10.08;57.08;100075.44;5011468;27;98060;-82
2023/02/20 11:07:06;;;;;;;6.88;4.32;;;;;;;10.07;57.60;100062.38;5020802;27;98014;-82
2023/02/20 11:09:32;;;;;;;6.38;3.60;;;;;;;9.93;57.46;100040.13;5014392;28;96887;-82
2023/02/20 11:11:58;;;;;;;6.82;3.53;;;;;;;10.01;57.63;100039.00;4996770;28;100995;-83
2023/02/20 11:14:33;;;;;;;5.93;4.15;;;;;;;10.03;57.39;100045.03;5012098;27;101377;-80
2023/02/20 11:17:18;;;;;;;8.90;3.60;;;;;;;10.07;57.87;100052.75;5018572;27;98110;-80
2023/02/20 11:19:55;;;;;;;8.85;4.28;;;;;;;10.11;57.50;100041.22;5000076;27;96834;-80
2023/02/20 11:22:45;;;;;;;6.22;3.50;;;;;;;10.14;58.06;100040.25;4993073;28;101643;-81
2023/02/20 11:25:30;;;;;;;8.20;3.42;;;;;;;10.20;57.87;100038.25;4988892;27;101396;-80
2023/02/20 11:28:17;;;;;;;5.03;3.65;;;;;;;10.19;57.95;100030.47;5039160;27;97587;-81
2023/02/20 11:30:45;;;;;;;7.78;3.80;;;;;;;10.18;58.18;99992.00;5036855;27;97087;-81
2023/02/20 11:33:14;;;;;;;5.28;3.33;;;;;;;10.30;58.44;100014.34;5027675;27;101343;-81
2023/02/20 11:35:41;;;;;;;6.45;3.30;;;;;;;10.26;58.59;99994.34;5050625;27;100719;-80
2023/02/20 11:38:16;;;;;;;5.93;3.78;;;;;;;10.45;58.37;100010.28;5050120;27;96785;-81
2023/02/20 11:40:42;;;;;;;5.75;2.70;;;;;;;10.48;58.38;100000.53;5061883;27;97733;-80
2023/02/20 11:43:19;;;;;;;5.57;3.40;;;;;;;10.43;58.44;99981.47;5051610;27;100816;-80
2023/02/20 11:45:45;;;;;;;4.57;2.67;;;;;;;10.59;60.07;99979.13;5050055;27;98794;-80
2023/02/20 11:48:16;;;;;;;5.57;2.33;;;;;;;10.64;58.22;99987.66;5044695;27;97203;-81
2023/02/20 11:50:50;;;;;;;6.35;2.30;;;;;;;10.68;57.58;99991.03;5036659;27;97566;-81
2023/02/20 11:53:31;;;;;;;2.72;1.98;;;;;;;10.72;57.11;99968.97;5047409;27;99028;-80
2023/02/20 11:56:12;;;;;;;3.35;1.90;;;;;;;10.67;56.41;99963.91;5045055;27;101742;-77
2023/02/20 11:58:39;;;;;;;3.58;1.73;;;;;;;10.75;56.23;99945.22;5051587;27;97596;-80